createdAt,value
2023-01-21T00:00:06.527Z,12.10
2023-01-21T00:03:14.606Z,13.40
2023-01-21T00:06:03.330Z,13.60
2023-01-21T00:08:51.411Z,14.50
2023-01-21T00:11:39.360Z,14.40
2023-01-21T00:14:27.272Z,13.40
2023-01-21T00:17:18.008Z,13.90
2023-01-21T00:20:06.975Z,13.60
2023-01-21T00:22:55.251Z,11.90
2023-01-21T00:25:43.374Z,10.30
2023-01-21T00:28:33.906Z,11.30
2023-01-21T00:31:22.127Z,12.70
2023-01-21T00:34:11.525Z,12.20
2023-01-21T00:36:59.202Z,10.80
2023-01-21T00:39:47.276Z,11.10
2023-01-21T00:42:35.198Z,11.00
2023-01-21T00:45:22.952Z,11.30
2023-01-21T00:48:10.902Z,13.70
2023-01-21T00:51:00.916Z,14.80
2023-01-21T00:53:49.081Z,10.30
2023-01-21T00:56:37.205Z,14.40
2023-01-21T00:59:27.366Z,14.40
2023-01-21T01:02:15.259Z,14.70
2023-01-21T01:05:03.260Z,12.30
2023-01-21T01:07:50.937Z,13.60
2023-01-21T01:10:39.103Z,11.20
2023-01-21T01:13:28.240Z,10.80
2023-01-21T01:16:17.035Z,11.80
2023-01-21T01:19:05.006Z,12.10
2023-01-21T01:21:52.633Z,10.20
2023-01-21T01:24:40.489Z,10.20
2023-01-21T01:27:30.777Z,12.70
2023-01-21T01:30:19.856Z,12.40
2023-01-21T01:33:07.693Z,13.30
2023-01-21T01:35:55.739Z,13.20
2023-01-21T01:38:44.009Z,12.30
2023-01-21T01:41:35.493Z,12.90
2023-01-21T01:45:03.173Z,13.50
2023-01-21T01:48:03.581Z,10.00
2023-01-21T01:50:52.073Z,11.70
2023-01-21T01:53:43.501Z,10.30
2023-01-21T01:56:31.588Z,10.70
2023-01-21T01:59:20.078Z,9.40
2023-01-21T02:02:12.058Z,7.50
2023-01-21T02:05:05.461Z,8.00
2023-01-21T02:07:53.027Z,6.90
2023-01-21T02:10:40.894Z,6.20
2023-01-21T02:13:31.809Z,6.80
2023-01-21T02:16:56.048Z,5.90
2023-01-21T02:20:21.731Z,5.80
2023-01-21T02:23:33.648Z,5.50
2023-01-21T02:26:27.426Z,5.70
2023-01-21T02:30:00.755Z,6.00
2023-01-21T02:33:18.669Z,5.90
2023-01-21T02:36:41.827Z,5.90
2023-01-21T02:39:48.730Z,5.70
2023-01-21T02:42:46.925Z,4.20
2023-01-21T02:45:46.661Z,4.80
2023-01-21T02:48:45.664Z,3.90
2023-01-21T02:51:34.903Z,3.60
2023-01-21T02:54:40.907Z,3.30
2023-01-21T02:57:47.498Z,3.30
2023-01-21T03:01:07.642Z,3.50
2023-01-21T03:04:03.155Z,2.50
2023-01-21T03:07:13.543Z,4.00
2023-01-21T03:10:14.662Z,3.80
2023-01-21T03:13:11.738Z,3.60
2023-01-21T03:16:18.547Z,4.10
2023-01-21T03:19:09.984Z,3.40
2023-01-21T03:22:00.430Z,3.50
2023-01-21T03:24:53.210Z,3.20
2023-01-21T03:27:45.098Z,2.90
2023-01-21T03:30:35.974Z,3.60
2023-01-21T03:33:25.257Z,3.60
2023-01-21T03:36:27.028Z,3.30
2023-01-21T03:39:39.415Z,3.10
2023-01-21T03:42:27.663Z,2.80
2023-01-21T03:45:15.811Z,2.80
2023-01-21T03:48:44.175Z,2.20
2023-01-21T03:51:38.140Z,1.90
2023-01-21T03:54:25.925Z,2.50
2023-01-21T03:57:14.513Z,2.30
2023-01-21T04:00:02.736Z,2.30
2023-01-21T04:02:52.695Z,2.00
2023-01-21T04:05:40.651Z,1.80
2023-01-21T04:08:28.644Z,1.80
2023-01-21T04:11:17.042Z,1.50
2023-01-21T04:14:05.319Z,1.80
2023-01-21T04:16:53.221Z,1.60
2023-01-21T04:19:41.061Z,1.30
2023-01-21T04:22:28.612Z,1.90
2023-01-21T04:25:16.890Z,1.50
2023-01-21T04:28:04.993Z,1.60
2023-01-21T04:30:52.683Z,1.40
2023-01-21T04:33:40.618Z,2.20
2023-01-21T04:36:28.453Z,1.50
2023-01-21T04:39:16.318Z,2.10
2023-01-21T04:42:05.336Z,1.80
2023-01-21T04:44:53.224Z,1.50
2023-01-21T04:47:43.311Z,1.80
2023-01-21T04:50:31.233Z,1.40
2023-01-21T04:53:19.090Z,1.80
2023-01-21T04:56:06.903Z,1.60
2023-01-21T04:58:54.809Z,1.60
2023-01-21T05:01:42.897Z,2.20
2023-01-21T05:04:32.939Z,1.80
2023-01-21T05:07:21.773Z,1.80
2023-01-21T05:10:16.861Z,1.60
2023-01-21T05:13:05.190Z,1.70
2023-01-21T05:15:52.978Z,1.60
2023-01-21T05:18:41.056Z,1.70
2023-01-21T05:21:29.273Z,1.50
2023-01-21T05:24:17.277Z,1.40
2023-01-21T05:27:05.185Z,1.50
2023-01-21T05:29:53.353Z,2.40
2023-01-21T05:32:41.245Z,1.60
2023-01-21T05:35:29.153Z,1.40
2023-01-21T05:38:17.321Z,1.70
2023-01-21T05:41:05.706Z,1.70
2023-01-21T05:43:53.221Z,1.60
2023-01-21T05:46:41.278Z,1.40
2023-01-21T05:49:29.068Z,1.60
2023-01-21T05:52:17.087Z,1.40
2023-01-21T05:55:06.206Z,1.70
2023-01-21T05:57:53.921Z,1.60
2023-01-21T06:00:42.141Z,1.70
2023-01-21T06:03:30.235Z,1.60
2023-01-21T06:06:18.292Z,1.60
2023-01-21T06:09:06.215Z,1.60
2023-01-21T06:11:53.962Z,1.60
2023-01-21T06:14:41.809Z,1.80
2023-01-21T06:17:29.696Z,1.50
2023-01-21T06:20:18.374Z,1.60
2023-01-21T06:23:07.108Z,1.90
2023-01-21T06:25:59.494Z,2.10
2023-01-21T06:28:47.374Z,1.40
2023-01-21T06:31:35.528Z,1.70
2023-01-21T06:34:23.487Z,1.60
2023-01-21T06:37:11.121Z,1.70
2023-01-21T06:39:58.850Z,1.60
2023-01-21T06:42:49.485Z,1.80
2023-01-21T06:45:37.090Z,1.90
2023-01-21T06:48:25.089Z,2.00
2023-01-21T06:51:12.912Z,1.40
2023-01-21T06:54:00.809Z,1.90
2023-01-21T06:56:48.613Z,1.40
2023-01-21T06:59:36.529Z,1.70
2023-01-21T07:02:24.497Z,1.90
2023-01-21T07:05:15.101Z,2.10
2023-01-21T07:08:03.884Z,2.00
2023-01-21T07:10:51.765Z,1.30
2023-01-21T07:13:39.909Z,1.50
2023-01-21T07:16:27.708Z,1.30
2023-01-21T07:19:15.943Z,1.60
2023-01-21T07:22:03.862Z,1.60
2023-01-21T07:24:51.512Z,1.30
2023-01-21T07:27:41.127Z,1.80
2023-01-21T07:30:29.029Z,1.60
2023-01-21T07:33:17.137Z,1.40
2023-01-21T07:36:05.679Z,1.80
2023-01-21T07:38:54.181Z,1.40
2023-01-21T07:41:41.955Z,1.40
2023-01-21T07:44:34.380Z,1.70
2023-01-21T07:47:22.381Z,2.00
2023-01-21T07:50:10.850Z,1.70
2023-01-21T07:52:59.765Z,1.30
2023-01-21T07:55:47.648Z,1.50
2023-01-21T07:58:36.218Z,1.30
2023-01-21T08:01:28.692Z,1.40
2023-01-21T08:04:16.922Z,1.50
2023-01-21T08:07:12.001Z,1.90
2023-01-21T08:10:01.057Z,1.50
2023-01-21T08:12:49.096Z,1.60
2023-01-21T08:15:36.979Z,1.40
2023-01-21T08:18:24.905Z,1.50
2023-01-21T08:21:12.528Z,1.90
2023-01-21T08:24:00.357Z,1.80
2023-01-21T08:26:49.211Z,1.60
2023-01-21T08:29:37.129Z,1.60
2023-01-21T08:32:25.095Z,1.40
2023-01-21T08:35:13.112Z,1.70
2023-01-21T08:38:02.406Z,1.40
2023-01-21T08:40:50.337Z,1.50
2023-01-21T08:43:38.304Z,1.80
2023-01-21T08:46:26.463Z,1.20
2023-01-21T08:49:13.988Z,1.10
2023-01-21T08:52:02.324Z,1.50
2023-01-21T08:54:50.871Z,1.20
2023-01-21T08:57:38.823Z,1.30
2023-01-21T09:00:26.792Z,1.80
2023-01-21T09:03:17.159Z,1.10
2023-01-21T09:06:07.164Z,1.40
2023-01-21T09:08:56.072Z,1.60
2023-01-21T09:11:44.103Z,1.60
2023-01-21T09:14:32.341Z,2.00
2023-01-21T09:17:20.342Z,1.70
2023-01-21T09:20:09.364Z,1.80
2023-01-21T09:22:59.091Z,2.10
2023-01-21T09:25:47.115Z,2.00
2023-01-21T09:28:38.609Z,1.40
2023-01-21T09:31:29.386Z,1.60
2023-01-21T09:34:17.280Z,1.80
2023-01-21T09:37:05.474Z,2.20
2023-01-21T09:39:53.692Z,1.90
2023-01-21T09:42:42.787Z,1.70
2023-01-21T09:45:30.444Z,1.90
2023-01-21T09:48:33.071Z,1.80
2023-01-21T09:51:40.802Z,1.90
2023-01-21T09:54:32.298Z,1.80
2023-01-21T09:57:25.811Z,2.10
2023-01-21T10:00:46.132Z,2.10
2023-01-21T10:03:56.838Z,1.90
2023-01-21T10:06:55.013Z,1.80
2023-01-21T10:10:04.696Z,2.20
2023-01-21T10:13:04.408Z,1.70
2023-01-21T10:16:04.949Z,2.10
2023-01-21T10:18:55.580Z,1.80
2023-01-21T10:21:50.347Z,1.60
2023-01-21T10:24:54.556Z,2.00
2023-01-21T10:27:43.872Z,1.90
2023-01-21T10:30:47.330Z,2.10
2023-01-21T10:33:35.196Z,2.20
2023-01-21T10:36:35.124Z,1.90
2023-01-21T10:39:40.545Z,1.90
2023-01-21T10:43:00.717Z,1.80
2023-01-21T10:46:25.704Z,1.50
2023-01-21T10:49:28.896Z,2.00
2023-01-21T10:52:34.977Z,2.40
2023-01-21T10:55:51.183Z,2.00
2023-01-21T10:59:10.652Z,1.80
2023-01-21T11:02:32.531Z,1.50
2023-01-21T11:05:21.637Z,1.80
2023-01-21T11:08:18.893Z,2.00
2023-01-21T11:11:08.937Z,2.20
2023-01-21T11:13:57.585Z,2.00
2023-01-21T11:16:50.506Z,1.80
2023-01-21T11:19:38.236Z,1.70
2023-01-21T11:22:31.614Z,2.30
2023-01-21T11:25:28.647Z,2.10
2023-01-21T11:28:29.651Z,1.90
2023-01-21T11:31:32.322Z,1.90
2023-01-21T11:34:23.306Z,2.10
2023-01-21T11:37:22.094Z,1.60
2023-01-21T11:40:24.328Z,2.30
2023-01-21T11:43:33.771Z,1.90
2023-01-21T11:46:38.421Z,1.80
2023-01-21T11:49:30.447Z,2.00
2023-01-21T11:52:20.871Z,1.90
2023-01-21T11:55:23.979Z,2.50
2023-01-21T11:58:21.032Z,1.90
2023-01-21T12:01:22.145Z,2.40
2023-01-21T12:04:15.488Z,1.90
2023-01-21T12:07:05.668Z,1.90
2023-01-21T12:10:23.564Z,1.70
2023-01-21T12:13:26.502Z,2.00
2023-01-21T12:17:04.475Z,2.00
2023-01-21T12:20:22.125Z,2.30
2023-01-21T12:23:21.545Z,2.30
2023-01-21T12:26:45.636Z,2.50
2023-01-21T12:30:19.525Z,2.50
2023-01-21T12:33:41.387Z,3.00
2023-01-21T12:36:44.167Z,2.70
2023-01-21T12:39:38.269Z,1.80
2023-01-21T12:42:37.796Z,2.20
2023-01-21T12:45:36.592Z,2.20
2023-01-21T12:49:22.205Z,2.10
2023-01-21T12:52:42.108Z,2.00
2023-01-21T12:56:18.161Z,2.20
2023-01-21T12:59:08.485Z,2.20
2023-01-21T13:02:05.727Z,2.10
2023-01-21T13:05:18.070Z,1.50
2023-01-21T13:08:30.471Z,1.90
2023-01-21T13:11:31.278Z,1.80
2023-01-21T13:14:40.398Z,2.20
2023-01-21T13:17:37.739Z,2.10
2023-01-21T13:20:26.875Z,2.00
2023-01-21T13:23:43.552Z,1.80
2023-01-21T13:26:46.885Z,2.00
2023-01-21T13:29:55.325Z,1.80
2023-01-21T13:32:47.510Z,2.00
2023-01-21T13:36:08.677Z,1.70
2023-01-21T13:39:46.921Z,2.10
2023-01-21T13:43:29.756Z,2.10
2023-01-21T13:47:16.651Z,2.10
2023-01-21T13:50:42.665Z,2.20
2023-01-21T13:54:36.223Z,2.50
2023-01-21T13:57:42.183Z,2.10
2023-01-21T14:00:38.084Z,1.90
2023-01-21T14:03:47.400Z,2.40
2023-01-21T14:06:53.196Z,2.10
2023-01-21T14:09:53.084Z,2.70
2023-01-21T14:13:14.565Z,2.10
2023-01-21T14:16:59.638Z,2.40
2023-01-21T14:20:27.209Z,2.20
2023-01-21T14:23:27.220Z,2.50
2023-01-21T14:26:48.567Z,2.50
2023-01-21T14:29:47.920Z,2.20
2023-01-21T14:32:57.131Z,2.20
2023-01-21T14:36:07.647Z,2.10
2023-01-21T14:39:16.461Z,2.70
2023-01-21T14:42:14.859Z,2.00
2023-01-21T14:45:05.636Z,2.20
2023-01-21T14:47:58.385Z,1.90
2023-01-21T14:50:54.990Z,2.00
2023-01-21T14:53:47.359Z,2.20
2023-01-21T14:56:35.669Z,2.10
2023-01-21T14:59:38.562Z,2.00
2023-01-21T15:02:43.612Z,2.30
2023-01-21T15:05:37.569Z,1.70
2023-01-21T15:08:32.845Z,1.90
2023-01-21T15:11:27.513Z,2.00
2023-01-21T15:14:30.770Z,1.50
2023-01-21T15:17:57.915Z,2.50
2023-01-21T15:20:50.607Z,2.50
2023-01-21T15:23:39.707Z,2.20
2023-01-21T15:26:32.936Z,1.90
2023-01-21T15:29:34.950Z,2.10
2023-01-21T15:32:31.729Z,2.00
2023-01-21T15:35:40.537Z,2.30
2023-01-21T15:38:29.901Z,1.90
2023-01-21T15:41:53.191Z,1.80
2023-01-21T15:44:59.310Z,2.10
2023-01-21T15:48:40.143Z,2.40
2023-01-21T15:51:51.623Z,1.90
2023-01-21T15:54:57.502Z,2.00
2023-01-21T15:58:02.450Z,2.10
2023-01-21T16:01:14.686Z,2.50
2023-01-21T16:04:48.168Z,2.20
2023-01-21T16:08:25.596Z,2.30
2023-01-21T16:11:19.973Z,2.20
2023-01-21T16:15:02.162Z,2.90
2023-01-21T16:18:00.978Z,2.10
2023-01-21T16:20:54.013Z,2.40
2023-01-21T16:23:43.440Z,2.20
2023-01-21T16:26:33.101Z,2.10
2023-01-21T16:29:23.653Z,1.90
2023-01-21T16:32:20.687Z,2.40
2023-01-21T16:35:08.957Z,2.20
2023-01-21T16:37:59.568Z,1.90
2023-01-21T16:41:18.955Z,3.10
2023-01-21T16:44:16.748Z,2.40
2023-01-21T16:47:04.821Z,2.30
2023-01-21T16:49:53.851Z,2.70
2023-01-21T16:52:41.548Z,2.60
2023-01-21T16:55:31.094Z,2.30
2023-01-21T16:58:34.426Z,2.40
2023-01-21T17:01:26.687Z,2.20
2023-01-21T17:04:14.630Z,2.30
2023-01-21T17:07:04.371Z,2.60
2023-01-21T17:10:19.650Z,2.20
2023-01-21T17:13:16.062Z,2.30
2023-01-21T17:16:04.605Z,2.30
2023-01-21T17:19:00.711Z,2.70
2023-01-21T17:22:00.172Z,2.30
2023-01-21T17:25:25.513Z,2.80
2023-01-21T17:28:59.831Z,2.40
2023-01-21T17:32:02.587Z,2.30
2023-01-21T17:35:17.163Z,2.00
2023-01-21T17:38:06.080Z,2.20
2023-01-21T17:41:03.914Z,1.80
2023-01-21T17:43:53.935Z,2.60
2023-01-21T17:46:47.308Z,2.70
2023-01-21T17:49:35.267Z,2.60
2023-01-21T17:52:23.915Z,3.20
2023-01-21T17:55:27.122Z,2.90
2023-01-21T17:58:52.418Z,3.00
2023-01-21T18:01:40.378Z,2.10
2023-01-21T18:04:31.118Z,2.50
2023-01-21T18:07:24.663Z,3.10
2023-01-21T18:10:21.488Z,2.30
2023-01-21T18:13:21.043Z,2.30
2023-01-21T18:16:09.512Z,2.40
2023-01-21T18:18:57.583Z,2.30
2023-01-21T18:21:45.788Z,2.80
2023-01-21T18:24:35.644Z,2.60
2023-01-21T18:27:26.092Z,2.30
2023-01-21T18:30:28.677Z,2.70
2023-01-21T18:33:20.406Z,2.40
2023-01-21T18:36:12.020Z,2.80
2023-01-21T18:39:00.237Z,2.70
2023-01-21T18:41:48.339Z,2.60
2023-01-21T18:44:36.336Z,2.10
2023-01-21T18:47:24.523Z,2.00
2023-01-21T18:50:21.787Z,2.60
2023-01-21T18:53:09.915Z,2.70
2023-01-21T18:55:58.135Z,2.20
2023-01-21T18:58:46.407Z,2.60
2023-01-21T19:01:34.509Z,2.20
2023-01-21T19:04:22.799Z,2.50
2023-01-21T19:07:20.200Z,2.60
2023-01-21T19:10:16.110Z,2.50
2023-01-21T19:13:04.183Z,2.20
2023-01-21T19:15:53.577Z,2.70
2023-01-21T19:18:41.811Z,3.70
2023-01-21T19:21:29.748Z,2.80
2023-01-21T19:24:19.067Z,2.20
2023-01-21T19:27:17.112Z,2.70
2023-01-21T19:30:26.847Z,2.60
2023-01-21T19:33:14.644Z,2.20
2023-01-21T19:36:15.146Z,2.30
2023-01-21T19:39:03.415Z,2.20
2023-01-21T19:42:07.034Z,2.40
2023-01-21T19:44:55.648Z,2.20
2023-01-21T19:47:46.958Z,2.30
2023-01-21T19:50:35.162Z,2.20
2023-01-21T19:53:23.885Z,2.10
2023-01-21T19:56:22.628Z,2.20
2023-01-21T19:59:15.718Z,2.20
2023-01-21T20:02:04.059Z,2.00
2023-01-21T20:04:52.804Z,2.90
2023-01-21T20:07:42.859Z,2.60
2023-01-21T20:10:33.657Z,2.30
2023-01-21T20:13:22.009Z,2.00
2023-01-21T20:16:21.283Z,2.50
2023-01-21T20:19:13.905Z,2.40
2023-01-21T20:22:03.189Z,2.30
2023-01-21T20:24:51.333Z,2.50
2023-01-21T20:27:39.379Z,2.60
2023-01-21T20:30:32.238Z,2.40
2023-01-21T20:33:23.897Z,2.30
2023-01-21T20:36:30.248Z,2.40
2023-01-21T20:39:20.773Z,3.30
2023-01-21T20:42:12.293Z,2.90
2023-01-21T20:45:00.464Z,2.90
2023-01-21T20:47:53.314Z,2.90
2023-01-21T20:50:47.264Z,2.70
2023-01-21T20:53:35.586Z,2.90
2023-01-21T20:56:32.034Z,3.50
2023-01-21T20:59:21.895Z,2.50
2023-01-21T21:02:12.924Z,2.90
2023-01-21T21:05:00.726Z,2.60
2023-01-21T21:07:49.080Z,2.60
2023-01-21T21:10:37.056Z,3.10
2023-01-21T21:13:24.938Z,2.60
2023-01-21T21:16:26.738Z,2.70
2023-01-21T21:19:16.092Z,2.40
2023-01-21T21:22:04.007Z,2.40
2023-01-21T21:24:51.724Z,3.00
2023-01-21T21:27:39.512Z,2.70
2023-01-21T21:30:33.913Z,2.70
2023-01-21T21:33:22.650Z,1.70
2023-01-21T21:36:20.064Z,2.30
2023-01-21T21:39:08.567Z,2.20
2023-01-21T21:42:16.021Z,2.30
2023-01-21T21:45:04.084Z,2.60
2023-01-21T21:48:10.347Z,2.60
2023-01-21T21:50:58.412Z,3.10
2023-01-21T21:53:47.051Z,2.60
2023-01-21T21:56:36.014Z,2.60
2023-01-21T21:59:24.661Z,2.40
2023-01-21T22:02:13.067Z,2.90
2023-01-21T22:05:03.175Z,2.50
2023-01-21T22:07:54.153Z,2.10
2023-01-21T22:10:42.336Z,2.30
2023-01-21T22:13:35.427Z,2.40
2023-01-21T22:16:29.725Z,2.30
2023-01-21T22:19:19.005Z,2.50
2023-01-21T22:22:07.836Z,2.40
2023-01-21T22:24:58.493Z,2.40
2023-01-21T22:27:49.106Z,2.40
2023-01-21T22:30:38.510Z,2.40
2023-01-21T22:33:27.736Z,2.00
2023-01-21T22:36:21.497Z,2.50
2023-01-21T22:39:11.687Z,2.40
2023-01-21T22:42:05.165Z,3.00
2023-01-21T22:44:53.264Z,2.70
2023-01-21T22:47:41.299Z,3.10
2023-01-21T22:50:29.721Z,2.50
2023-01-21T22:53:17.616Z,2.60
2023-01-21T22:56:06.741Z,2.60
2023-01-21T22:58:54.761Z,2.80
2023-01-21T23:01:43.507Z,2.60
2023-01-21T23:04:31.398Z,3.00
2023-01-21T23:07:19.413Z,3.90
2023-01-21T23:10:07.816Z,4.20
2023-01-21T23:12:55.973Z,3.80
2023-01-21T23:15:45.830Z,3.10
2023-01-21T23:18:36.289Z,2.70
2023-01-21T23:21:24.375Z,2.90
2023-01-21T23:24:12.827Z,2.80
2023-01-21T23:27:00.817Z,3.40
2023-01-21T23:29:49.151Z,3.10
2023-01-21T23:32:37.155Z,3.20
2023-01-21T23:35:25.340Z,3.70
2023-01-21T23:38:13.002Z,4.90
2023-01-21T23:41:09.156Z,4.10
2023-01-21T23:44:06.246Z,3.70
2023-01-21T23:46:54.270Z,3.40
2023-01-21T23:49:42.153Z,3.50
2023-01-21T23:52:29.938Z,3.90
2023-01-21T23:55:17.765Z,2.90
2023-01-21T23:58:05.359Z,3.00
